Time;durP1;ratioP1;P1;durP2;ratioP2;P2;SDS_P1;SDS_P2;PMS_P1;PMS_P2;Temp;Humidity;BMP_temperature;BMP_pressure;BME280_temperature;BME280_humidity;BME280_pressure;Samples;Min_cycle;Max_cycle;Signal;HPM_P1;HPM_P2
2023/07/18 00:00:14;;;;;;;23.42;20.92;;;;;;;22.32;79.07;97759.34;10283665;28;20070;-51
2023/07/18 00:05:13;;;;;;;25.63;21.90;;;;;;;22.26;79.52;97743.78;10280832;28;20076;-52
2023/07/18 00:10:12;;;;;;;24.85;22.33;;;;;;;22.18;80.90;97745.94;10283466;28;20117;-53
2023/07/18 00:15:12;;;;;;;26.38;22.98;;;;;;;22.18;81.54;97743.31;10281699;28;20116;-50
2023/07/18 00:20:17;;;;;;;26.88;23.73;;;;;;;22.01;82.60;97730.88;10283485;28;20069;-52
2023/07/18 00:25:19;;;;;;;24.83;22.17;;;;;;;21.79;83.08;97699.31;10280464;28;20499;-50
2023/07/18 00:30:18;;;;;;;26.80;22.85;;;;;;;21.75;83.50;97695.09;10282658;28;20140;-51
2023/07/18 00:35:17;;;;;;;27.60;24.67;;;;;;;21.94;83.19;97730.31;10280794;28;20092;-49
2023/07/18 00:40:16;;;;;;;25.92;23.27;;;;;;;21.74;83.54;97711.88;10282169;28;20029;-51
2023/07/18 00:45:15;;;;;;;26.50;23.30;;;;;;;21.81;83.86;97709.81;10281683;28;20061;-48
2023/07/18 00:50:16;;;;;;;29.58;24.40;;;;;;;21.70;84.80;97705.03;10280966;28;20112;-51
2023/07/18 00:55:16;;;;;;;26.33;23.50;;;;;;;21.63;85.30;97708.88;10281897;28;20562;-49
2023/07/18 01:00:16;;;;;;;25.80;23.20;;;;;;;21.59;85.60;97709.94;10281306;28;20065;-51
2023/07/18 01:05:17;;;;;;;27.67;24.67;;;;;;;21.47;85.90;97706.94;10279114;28;20484;-51
2023/07/18 01:10:27;;;;;;;30.20;25.70;;;;;;;21.45;86.11;97702.66;10281272;28;20108;-52
2023/07/18 01:15:31;;;;;;;27.20;24.13;;;;;;;21.46;86.20;97705.22;10279085;28;20058;-51
2023/07/18 01:20:30;;;;;;;28.45;25.27;;;;;;;21.20;86.23;97660.66;10281704;28;20364;-49
2023/07/18 01:25:30;;;;;;;27.10;24.40;;;;;;;21.21;86.90;97678.25;10287060;28;20514;-48
2023/07/18 01:30:29;;;;;;;26.85;24.10;;;;;;;21.25;87.27;97695.66;10279666;28;20120;-51
2023/07/18 01:35:28;;;;;;;27.60;24.70;;;;;;;21.25;87.31;97701.78;10282292;28;20125;-49
2023/07/18 01:40:27;;;;;;;28.58;25.67;;;;;;;21.24;87.11;97699.19;10280645;28;20041;-50
2023/07/18 01:45:30;;;;;;;31.50;27.00;;;;;;;21.20;87.25;97698.47;10279856;28;20072;-52
2023/07/18 01:50:30;;;;;;;27.88;25.00;;;;;;;21.16;87.26;97698.66;10279504;28;20555;-52
2023/07/18 01:55:29;;;;;;;27.23;24.40;;;;;;;21.09;87.19;97680.47;10278162;28;20342;-51
2023/07/18 02:00:28;;;;;;;28.02;25.02;;;;;;;21.16;86.97;97694.25;10280997;28;20057;-51
2023/07/18 02:05:29;;;;;;;26.75;23.95;;;;;;;21.15;86.62;97679.34;10278173;28;20128;-51
2023/07/18 02:10:28;;;;;;;25.60;22.80;;;;;;;21.04;86.78;97686.88;10280082;28;20129;-50
2023/07/18 02:15:28;;;;;;;27.08;24.20;;;;;;;20.77;87.23;97644.94;10277325;28;20049;-52
2023/07/18 02:20:27;;;;;;;27.42;24.52;;;;;;;20.70;87.46;97657.56;10279399;28;20137;-52
2023/07/18 02:25:26;;;;;;;27.80;24.95;;;;;;;20.98;87.25;97693.28;10278704;28;20038;-51
2023/07/18 02:30:25;;;;;;;28.15;25.13;;;;;;;20.93;87.73;97682.91;10282754;28;20148;-53
2023/07/18 02:35:24;;;;;;;28.70;25.02;;;;;;;20.90;87.93;97690.13;10286447;28;20068;-52
2023/07/18 02:40:23;;;;;;;31.65;26.13;;;;;;;20.91;87.68;97700.63;10285964;28;20033;-48
2023/07/18 02:45:22;;;;;;;28.25;24.02;;;;;;;20.87;87.81;97695.53;10285201;28;20057;-49
2023/07/18 02:50:21;;;;;;;29.85;23.15;;;;;;;20.81;87.71;97683.47;10287582;28;20053;-51
2023/07/18 02:55:20;;;;;;;29.85;23.70;;;;;;;20.81;87.59;97690.53;10283718;28;20124;-51
2023/07/18 03:00:20;;;;;;;34.20;25.10;;;;;;;20.82;87.37;97693.09;10285874;28;20030;-50
2023/07/18 03:05:21;;;;;;;29.73;25.08;;;;;;;20.77;87.80;97700.34;10285471;28;20088;-50
2023/07/18 03:10:21;;;;;;;34.55;23.00;;;;;;;20.55;88.45;97699.56;10284149;28;20155;-50
2023/07/18 03:15:21;;;;;;;27.67;22.10;;;;;;;20.52;88.09;97719.00;10285920;28;20552;-51
2023/07/18 03:20:20;;;;;;;26.90;23.75;;;;;;;20.54;87.62;97711.88;10283815;28;20113;-51
2023/07/18 03:25:22;;;;;;;26.48;23.75;;;;;;;20.55;87.28;97729.41;10284649;28;20030;-51
2023/07/18 03:30:21;;;;;;;28.27;25.27;;;;;;;20.49;87.59;97730.53;10284439;28;20165;-52
2023/07/18 03:35:20;;;;;;;26.75;23.73;;;;;;;20.50;87.49;97720.84;10284242;28;20479;-52
2023/07/18 03:40:19;;;;;;;27.90;24.42;;;;;;;20.66;87.68;97729.81;10285206;28;20058;-51
2023/07/18 03:45:18;;;;;;;27.33;23.88;;;;;;;20.81;87.58;97724.81;10283587;28;20117;-49
2023/07/18 03:50:17;;;;;;;27.10;24.20;;;;;;;21.01;87.32;97731.84;10283827;28;20132;-49
2023/07/18 03:55:16;;;;;;;28.27;24.73;;;;;;;21.08;87.06;97736.81;10283447;28;20073;-52
2023/07/18 04:00:17;;;;;;;28.58;23.65;;;;;;;21.17;87.12;97740.81;10284257;28;20057;-51
2023/07/18 04:05:17;;;;;;;26.10;23.25;;;;;;;21.40;86.94;97744.25;10283307;28;20073;-51
2023/07/18 04:10:16;;;;;;;26.70;22.73;;;;;;;21.71;85.69;97741.06;10289848;28;20128;-51
2023/07/18 04:15:15;;;;;;;27.58;23.63;;;;;;;21.90;85.01;97736.66;10283262;28;20483;-51
2023/07/18 04:20:19;;;;;;;25.60;22.98;;;;;;;22.08;83.40;97742.88;10281453;28;20062;-52
2023/07/18 04:25:18;;;;;;;26.35;22.23;;;;;;;22.06;83.19;97735.94;10286435;28;20507;-51
2023/07/18 04:30:17;;;;;;;26.90;22.40;;;;;;;22.28;83.11;97741.91;10284670;28;20069;-50
2023/07/18 04:35:16;;;;;;;26.00;22.55;;;;;;;22.42;81.84;97737.75;10283213;28;20045;-52
2023/07/18 04:40:15;;;;;;;27.30;23.08;;;;;;;22.67;80.66;97735.59;10285697;28;20530;-52
2023/07/18 04:45:14;;;;;;;26.20;22.25;;;;;;;22.72;80.33;97732.72;10283402;28;20065;-51
2023/07/18 04:50:15;;;;;;;28.08;22.35;;;;;;;22.77;79.55;97709.56;10285082;28;20628;-52
2023/07/18 04:55:15;;;;;;;26.40;21.40;;;;;;;23.13;78.84;97720.03;10259892;28;20192;-52
2023/07/18 05:00:14;;;;;;;29.95;22.70;;;;;;;23.42;77.90;97720.28;10256331;28;20198;-50
2023/07/18 05:05:13;;;;;;;27.65;21.83;;;;;;;23.60;76.70;97721.94;10287587;28;20092;-52
2023/07/18 05:10:13;;;;;;;28.02;21.52;;;;;;;23.60;77.17;97724.59;10284321;28;20069;-50
2023/07/18 05:15:13;;;;;;;29.83;22.65;;;;;;;23.44;78.40;97719.28;10284908;28;20076;-52
2023/07/18 05:20:12;;;;;;;28.63;22.13;;;;;;;23.38;79.23;97724.03;10282975;28;20089;-52
2023/07/18 05:25:13;;;;;;;30.15;22.00;;;;;;;23.56;78.47;97738.97;10284085;28;20088;-51
2023/07/18 05:30:13;;;;;;;29.95;21.63;;;;;;;23.64;78.63;97731.44;10277200;28;20125;-52
2023/07/18 05:35:14;;;;;;;24.23;21.25;;;;;;;23.98;77.65;97734.03;10279133;28;20555;-52
2023/07/18 05:40:13;;;;;;;27.00;20.92;;;;;;;24.18;76.47;97741.78;10276895;28;20076;-50
2023/07/18 05:45:12;;;;;;;25.08;20.90;;;;;;;24.57;74.75;97735.13;10278654;28;20141;-52
2023/07/18 05:50:12;;;;;;;24.88;20.20;;;;;;;24.40;73.53;97685.72;10279287;28;20033;-52
2023/07/18 05:55:12;;;;;;;23.10;19.80;;;;;;;24.82;72.29;97741.66;10280238;28;20546;-52
2023/07/18 06:00:12;;;;;;;26.45;20.85;;;;;;;24.83;72.28;97738.06;10279919;28;20081;-52
2023/07/18 06:05:11;;;;;;;23.65;20.95;;;;;;;25.04;71.38;97730.66;10282777;28;20105;-51
2023/07/18 06:10:11;;;;;;;24.17;20.55;;;;;;;25.29;70.12;97736.19;10286533;28;20077;-50
2023/07/18 06:15:10;;;;;;;21.27;19.15;;;;;;;25.46;68.39;97739.59;10287339;28;20499;-52
2023/07/18 06:20:13;;;;;;;21.50;19.20;;;;;;;25.45;65.75;97732.56;10286569;28;20080;-52
2023/07/18 06:25:12;;;;;;;19.85;17.75;;;;;;;25.60;63.69;97734.31;10286035;28;20296;-51
2023/07/18 06:30:12;;;;;;;17.80;16.10;;;;;;;25.69;62.43;97739.06;10287093;28;20066;-50
2023/07/18 06:35:12;;;;;;;20.80;18.52;;;;;;;25.75;63.47;97729.84;10292806;28;20689;-51
2023/07/18 06:40:12;;;;;;;20.65;17.92;;;;;;;25.96;62.55;97740.91;10301976;28;20541;-49
2023/07/18 06:45:12;;;;;;;21.65;19.33;;;;;;;26.19;62.39;97725.28;10286040;28;20116;-53
2023/07/18 06:50:11;;;;;;;19.58;17.52;;;;;;;26.40;61.48;97723.91;10284478;28;20180;-53
2023/07/18 06:55:10;;;;;;;20.70;17.98;;;;;;;26.71;61.24;97724.53;10278482;28;20129;-53
2023/07/18 07:00:11;;;;;;;20.38;18.33;;;;;;;27.12;59.78;97719.09;10279081;28;20046;-51
2023/07/18 07:05:10;;;;;;;41.88;20.63;;;;;;;27.60;59.12;97721.13;10284136;28;20088;-48
2023/07/18 07:10:09;;;;;;;26.80;18.88;;;;;;;28.01;58.32;97727.97;10283366;28;20092;-49
2023/07/18 07:15:09;;;;;;;22.23;18.30;;;;;;;28.41;56.18;97727.75;10282024;28;20121;-51
2023/07/18 07:20:12;;;;;;;23.27;18.98;;;;;;;28.65;55.23;97709.88;10288849;28;20065;-50
2023/07/18 07:25:13;;;;;;;25.08;17.52;;;;;;;29.01;53.94;97720.56;10283558;28;20077;-51
2023/07/18 07:30:16;;;;;;;23.98;17.80;;;;;;;29.16;53.03;97703.38;10285694;28;20065;-51
2023/07/18 07:35:19;;;;;;;22.98;17.95;;;;;;;29.48;52.85;97722.28;10283014;28;20065;-51
2023/07/18 07:40:18;;;;;;;22.98;18.48;;;;;;;29.44;52.97;97691.41;10284098;28;20081;-51
2023/07/18 07:45:18;;;;;;;21.75;16.98;;;;;;;29.66;52.97;97716.41;10286134;28;20586;-51
2023/07/18 07:50:17;;;;;;;20.55;18.35;;;;;;;29.90;53.01;97713.63;10286216;28;20116;-49
2023/07/18 07:55:16;;;;;;;20.35;17.60;;;;;;;30.08;51.96;97713.97;10285282;28;20053;-50
2023/07/18 08:00:16;;;;;;;21.48;18.00;;;;;;;30.26;51.02;97688.38;10283514;28;20061;-50
2023/07/18 08:05:15;;;;;;;25.73;18.55;;;;;;;30.63;49.80;97700.53;10286654;28;20076;-51
2023/07/18 08:10:14;;;;;;;20.42;17.48;;;;;;;30.88;49.40;97704.69;10285730;28;20030;-52
2023/07/18 08:15:13;;;;;;;19.92;18.00;;;;;;;30.91;49.26;97715.13;10285708;28;20153;-51
2023/07/18 08:20:12;;;;;;;21.42;17.23;;;;;;;31.02;49.01;97709.75;10276419;28;20623;-52
2023/07/18 08:25:11;;;;;;;20.30;16.55;;;;;;;30.81;48.18;97707.03;10277164;28;20121;-51
2023/07/18 08:30:11;;;;;;;25.90;18.15;;;;;;;31.20;47.72;97726.09;10282040;28;20143;-52
2023/07/18 08:35:10;;;;;;;20.15;17.38;;;;;;;31.44;44.70;97725.78;10286527;28;20955;-52
2023/07/18 08:40:11;;;;;;;23.73;17.52;;;;;;;31.61;45.88;97718.13;10283058;28;20528;-51
2023/07/18 08:45:13;;;;;;;17.98;16.27;;;;;;;31.77;46.13;97718.47;10276042;28;20120;-52
2023/07/18 08:50:12;;;;;;;17.13;15.30;;;;;;;31.85;46.01;97724.03;10281664;28;20120;-52
2023/07/18 08:55:11;;;;;;;15.88;14.25;;;;;;;31.64;45.46;97715.19;10277784;28;20078;-53
2023/07/18 09:00:11;;;;;;;16.55;14.85;;;;;;;31.92;46.18;97717.13;10282604;28;20440;-52
2023/07/18 09:05:27;;;;;;;16.42;14.70;;;;;;;32.18;45.36;97722.03;10283179;28;20486;-51
2023/07/18 09:10:26;;;;;;;18.17;14.02;;;;;;;32.41;45.75;97726.16;10284848;28;20156;-51
2023/07/18 09:15:25;;;;;;;16.65;12.93;;;;;;;32.64;45.62;97715.16;10281708;28;20488;-51
2023/07/18 09:20:29;;;;;;;18.15;12.80;;;;;;;32.49;45.14;97724.63;10281044;28;20503;-50
2023/07/18 09:25:28;;;;;;;16.30;11.43;;;;;;;32.23;45.37;97717.09;10283428;28;20073;-51
2023/07/18 09:30:32;;;;;;;15.35;11.73;;;;;;;32.06;45.31;97717.75;10282145;28;20471;-51
2023/07/18 09:35:41;;;;;;;15.55;11.75;;;;;;;31.81;46.19;97719.91;10282892;28;20502;-51
2023/07/18 09:40:40;;;;;;;13.65;11.02;;;;;;;31.86;45.78;97712.31;10292632;28;20547;-52
2023/07/18 09:45:41;;;;;;;21.60;10.35;;;;;;;32.27;44.44;97697.03;10296268;28;20101;-49
2023/07/18 09:50:44;;;;;;;31.17;11.48;;;;;;;32.15;44.55;97711.53;10287992;28;20907;-50
2023/07/18 09:55:44;;;;;;;21.08;11.38;;;;;;;31.67;44.69;97600.41;10296841;28;20066;-51
2023/07/18 10:00:43;;;;;;;12.43;10.43;;;;;;;32.31;45.21;97701.13;10294353;28;20157;-50
2023/07/18 10:05:42;;;;;;;66.50;15.13;;;;;;;32.53;43.53;97702.69;10296656;28;20109;-51
2023/07/18 10:10:58;;;;;;;13.18;9.20;;;;;;;32.41;43.60;97707.38;10294715;28;20033;-53
2023/07/18 10:16:12;;;;;;;34.03;10.60;;;;;;;32.28;42.95;97706.78;10294514;28;20073;-52
2023/07/18 10:21:14;;;;;;;27.73;9.95;;;;;;;32.44;43.19;97706.22;10293163;28;20129;-52
2023/07/18 10:26:13;;;;;;;17.13;9.48;;;;;;;32.63;42.39;97706.25;10290807;28;20522;-52
2023/07/18 10:31:35;;;;;;;16.27;10.15;;;;;;;32.43;42.30;97700.03;10293527;28;20052;-51
2023/07/18 10:36:35;;;;;;;17.02;8.98;;;;;;;32.36;42.20;97708.75;10295852;28;20133;-54
2023/07/18 10:41:34;;;;;;;22.38;9.98;;;;;;;32.24;42.09;97705.34;10294499;28;20058;-51
2023/07/18 10:46:38;;;;;;;10.70;8.77;;;;;;;32.31;41.41;97713.69;10294768;28;20129;-51
2023/07/18 10:51:37;;;;;;;13.75;8.98;;;;;;;32.31;40.68;97702.97;10291472;28;20693;-52
2023/07/18 10:56:36;;;;;;;13.50;9.13;;;;;;;32.21;41.60;97714.53;10288811;28;20563;-51
2023/07/18 11:01:35;;;;;;;18.10;9.57;;;;;;;32.25;40.58;97707.06;10287233;28;20033;-50
2023/07/18 11:06:34;;;;;;;26.95;9.52;;;;;;;32.34;39.83;97716.97;10287223;28;20092;-52
2023/07/18 11:11:37;;;;;;;15.05;9.57;;;;;;;32.45;39.62;97712.44;10288979;28;20149;-53
2023/07/18 11:16:36;;;;;;;19.33;10.07;;;;;;;32.47;41.52;97715.84;10289180;28;20069;-53
2023/07/18 11:21:37;;;;;;;19.27;9.30;;;;;;;32.41;39.65;97693.94;10287908;28;20069;-53
2023/07/18 11:26:35;;;;;;;14.77;8.85;;;;;;;32.68;40.09;97719.28;10287137;28;20077;-54
2023/07/18 11:31:41;;;;;;;20.77;10.02;;;;;;;32.66;40.45;97713.19;10286729;28;20393;-52
2023/07/18 11:36:41;;;;;;;9.80;7.75;;;;;;;32.83;40.58;97707.09;10287765;28;20065;-52
2023/07/18 11:41:40;;;;;;;22.85;9.30;;;;;;;32.95;40.90;97696.19;10287531;28;20478;-52
2023/07/18 11:46:44;;;;;;;13.07;8.18;;;;;;;33.00;38.53;97691.25;10279281;28;20068;-52
2023/07/18 11:51:43;;;;;;;9.90;7.65;;;;;;;33.25;37.99;97685.25;10283943;28;20140;-51
2023/07/18 11:56:42;;;;;;;9.55;8.07;;;;;;;33.39;37.24;97691.16;10286323;28;20147;-52
2023/07/18 12:01:41;;;;;;;9.30;7.28;;;;;;;33.12;36.78;97684.72;10285672;28;20228;-52
2023/07/18 12:06:43;;;;;;;10.45;7.72;;;;;;;33.48;36.51;97687.56;10284387;28;20121;-52
2023/07/18 12:11:42;;;;;;;11.50;7.25;;;;;;;33.62;36.41;97662.06;10285930;28;20109;-52
2023/07/18 12:16:41;;;;;;;11.32;7.20;;;;;;;33.59;36.28;97679.31;10283562;28;20112;-52
2023/07/18 12:21:40;;;;;;;11.93;7.35;;;;;;;33.63;34.28;97683.44;10286420;28;20125;-53
2023/07/18 12:26:39;;;;;;;8.50;6.45;;;;;;;33.65;34.33;97669.81;10285829;28;20104;-52
2023/07/18 12:31:38;;;;;;;11.13;6.93;;;;;;;33.56;35.11;97686.81;10288028;28;20134;-52
2023/07/18 12:36:38;;;;;;;11.30;7.70;;;;;;;33.40;35.42;97679.41;10287317;28;20510;-53
2023/07/18 12:41:37;;;;;;;9.30;6.70;;;;;;;32.95;34.63;97610.16;10283813;28;20084;-52
2023/07/18 12:46:36;;;;;;;11.38;6.45;;;;;;;33.32;35.08;97657.75;10284082;28;20033;-52
2023/07/18 12:51:35;;;;;;;12.00;6.70;;;;;;;33.50;34.00;97672.13;10282702;28;20129;-51
2023/07/18 12:56:35;;;;;;;9.35;6.22;;;;;;;33.78;34.18;97653.34;10283784;28;20100;-52
2023/07/18 13:01:34;;;;;;;8.65;6.85;;;;;;;33.85;33.85;97657.13;10283183;28;20631;-51
2023/07/18 13:06:33;;;;;;;10.10;6.65;;;;;;;33.99;34.15;97663.84;10283097;28;20499;-53
2023/07/18 13:11:32;;;;;;;9.68;6.68;;;;;;;34.37;32.48;97649.25;10283233;28;20621;-51
2023/07/18 13:16:31;;;;;;;9.65;6.38;;;;;;;34.53;32.95;97643.19;10283035;28;20026;-51
2023/07/18 13:21:30;;;;;;;10.20;6.13;;;;;;;34.65;32.61;97644.66;10283455;28;20037;-51
2023/07/18 13:26:29;;;;;;;10.73;6.63;;;;;;;34.41;32.02;97617.50;10285972;28;20046;-51
2023/07/18 13:31:28;;;;;;;7.75;6.03;;;;;;;34.59;32.20;97630.91;10279444;28;20037;-50
2023/07/18 13:36:27;;;;;;;8.35;6.70;;;;;;;34.76;32.02;97632.78;10284792;28;20404;-53
2023/07/18 13:41:26;;;;;;;10.73;6.35;;;;;;;34.80;30.94;97622.50;10281946;28;20068;-51
2023/07/18 13:46:25;;;;;;;10.73;5.82;;;;;;;34.61;29.87;97629.78;10287904;28;20042;-53
2023/07/18 13:51:24;;;;;;;10.10;6.47;;;;;;;34.72;29.78;97626.00;10284547;28;20892;-51
2023/07/18 13:56:23;;;;;;;9.10;6.25;;;;;;;34.76;30.69;97632.78;10280374;28;20141;-53
2023/07/18 14:01:22;;;;;;;8.25;5.50;;;;;;;34.64;30.75;97634.88;10283290;28;20073;-51
2023/07/18 14:06:21;;;;;;;7.55;5.57;;;;;;;34.57;30.14;97620.31;10282651;28;20029;-52
2023/07/18 14:11:20;;;;;;;6.82;5.68;;;;;;;34.66;30.53;97627.50;10283820;28;20176;-53
2023/07/18 14:16:19;;;;;;;8.15;5.88;;;;;;;34.68;29.64;97608.44;10285574;28;20153;-52
2023/07/18 14:21:19;;;;;;;9.68;6.03;;;;;;;34.82;29.70;97615.97;10286009;28;20105;-51
2023/07/18 14:26:18;;;;;;;13.55;6.40;;;;;;;34.72;29.17;97610.66;10288301;28;20116;-52
2023/07/18 14:31:17;;;;;;;9.38;5.45;;;;;;;34.60;28.63;97603.81;10287190;28;20566;-53
2023/07/18 14:36:16;;;;;;;8.77;5.50;;;;;;;34.40;29.05;97602.31;10283760;28;20037;-53
2023/07/18 14:41:15;;;;;;;9.60;5.63;;;;;;;34.53;28.84;97604.63;10286075;28;20048;-52
2023/07/18 14:46:14;;;;;;;10.02;5.60;;;;;;;34.54;29.13;97611.69;10287134;28;20533;-54
2023/07/18 14:51:13;;;;;;;10.57;4.82;;;;;;;34.47;28.48;97598.84;10287977;28;20404;-52
2023/07/18 14:56:12;;;;;;;7.13;5.07;;;;;;;34.38;28.88;97593.53;10283936;28;20080;-53
2023/07/18 15:01:11;;;;;;;8.52;5.38;;;;;;;34.68;28.90;97597.66;10286188;28;20077;-52
2023/07/18 15:06:10;;;;;;;8.10;4.80;;;;;;;34.59;27.80;97596.75;10288336;28;20026;-52
2023/07/18 15:11:09;;;;;;;8.70;5.32;;;;;;;34.35;27.90;97569.59;10288472;28;20113;-53
2023/07/18 15:16:10;;;;;;;8.82;4.57;;;;;;;34.39;28.05;97592.53;10286810;28;20032;-53
2023/07/18 15:21:09;;;;;;;11.82;5.65;;;;;;;34.41;27.46;97599.47;10285706;28;20144;-52
2023/07/18 15:26:08;;;;;;;10.07;4.70;;;;;;;34.28;27.62;97596.31;10283470;28;20037;-52
2023/07/18 15:31:07;;;;;;;8.48;5.00;;;;;;;34.42;27.61;97598.44;10284625;28;20081;-53
2023/07/18 15:36:06;;;;;;;9.40;4.28;;;;;;;34.38;27.55;97596.22;10284577;28;20049;-52
2023/07/18 15:41:05;;;;;;;7.20;4.90;;;;;;;33.98;27.77;97603.78;10287047;28;20080;-53
2023/07/18 15:46:04;;;;;;;8.07;4.82;;;;;;;34.01;28.57;97605.31;10287283;28;20129;-52
2023/07/18 15:51:03;;;;;;;9.80;4.78;;;;;;;33.86;29.15;97604.97;10287766;28;20107;-52
2023/07/18 15:56:02;;;;;;;7.55;5.35;;;;;;;33.86;29.63;97607.66;10286431;28;20156;-52
2023/07/18 16:01:01;;;;;;;8.70;5.07;;;;;;;33.94;30.16;97615.00;10283813;28;20022;-52
2023/07/18 16:06:00;;;;;;;8.35;5.32;;;;;;;33.71;30.10;97615.41;10283946;28;20041;-52
2023/07/18 16:10:59;;;;;;;9.00;5.32;;;;;;;33.53;30.12;97615.31;10280057;28;20492;-53
2023/07/18 16:15:58;;;;;;;10.48;5.22;;;;;;;33.34;30.33;97613.59;10286834;28;20046;-53
2023/07/18 16:20:57;;;;;;;12.27;5.10;;;;;;;33.22;30.36;97621.00;10285266;28;20065;-51
2023/07/18 16:25:56;;;;;;;7.75;5.18;;;;;;;33.37;30.49;97615.13;10285715;28;20036;-52
2023/07/18 16:30:54;;;;;;;8.70;5.28;;;;;;;33.26;30.41;97613.50;10283549;28;20038;-51
2023/07/18 16:35:54;;;;;;;8.85;5.18;;;;;;;33.08;31.00;97599.94;10284752;28;20112;-52
2023/07/18 16:40:52;;;;;;;10.13;5.28;;;;;;;33.05;31.31;97613.69;10284571;28;20080;-52
2023/07/18 16:45:51;;;;;;;8.75;5.40;;;;;;;32.96;31.24;97615.41;10282930;28;20105;-53
2023/07/18 16:50:50;;;;;;;6.53;4.82;;;;;;;32.95;31.21;97613.72;10281807;28;20026;-52
2023/07/18 16:55:51;;;;;;;9.65;4.93;;;;;;;32.94;31.61;97619.22;10280963;28;20041;-53
2023/07/18 17:00:50;;;;;;;12.52;5.43;;;;;;;32.76;31.74;97620.00;10280181;28;20563;-53
2023/07/18 17:05:49;;;;;;;9.00;5.18;;;;;;;32.55;32.31;97621.94;10279521;28;20109;-51
2023/07/18 17:10:48;;;;;;;12.15;6.63;;;;;;;32.45;32.96;97621.97;10283854;28;20546;-54
2023/07/18 17:15:47;;;;;;;15.13;5.93;;;;;;;32.33;33.11;97620.41;10282539;28;20057;-53
2023/07/18 17:20:46;;;;;;;8.48;5.47;;;;;;;32.16;33.63;97617.44;10252831;28;20533;-52
2023/07/18 17:25:45;;;;;;;6.88;5.28;;;;;;;32.02;33.68;97628.56;10281940;28;20128;-52
2023/07/18 17:30:44;;;;;;;9.40;5.65;;;;;;;31.84;35.20;97628.41;10283567;28;20038;-52
2023/07/18 17:35:43;;;;;;;18.35;6.28;;;;;;;31.59;36.23;97637.78;10283617;28;20030;-53
2023/07/18 17:40:42;;;;;;;13.80;6.43;;;;;;;31.46;37.43;97632.66;10283409;28;20128;-53
2023/07/18 17:45:41;;;;;;;13.00;6.70;;;;;;;31.28;38.54;97639.63;10280929;28;20133;-53
2023/07/18 17:50:40;;;;;;;10.05;5.95;;;;;;;30.82;38.17;97604.25;10278787;28;20045;-53
2023/07/18 17:55:39;;;;;;;14.88;6.50;;;;;;;30.76;38.63;97642.28;10279212;28;20515;-50
2023/07/18 18:00:38;;;;;;;9.80;6.00;;;;;;;30.43;39.26;97637.97;10284180;28;20077;-53
2023/07/18 18:05:46;;;;;;;10.60;6.18;;;;;;;30.11;39.29;97652.16;10286970;28;20034;-55
2023/07/18 18:10:46;;;;;;;9.50;5.88;;;;;;;29.83;39.64;97654.38;10262093;28;20451;-53
2023/07/18 18:15:45;;;;;;;13.73;6.40;;;;;;;29.42;40.44;97631.84;10285893;28;20137;-51
2023/07/18 18:20:44;;;;;;;9.27;6.80;;;;;;;29.36;41.08;97656.38;10287663;28;20057;-53
2023/07/18 18:25:43;;;;;;;11.15;6.45;;;;;;;29.09;42.26;97665.59;10287314;28;20466;-52
2023/07/18 18:30:42;;;;;;;12.82;6.95;;;;;;;28.83;42.59;97677.44;10282458;28;20535;-52
2023/07/18 18:35:42;;;;;;;11.90;6.55;;;;;;;28.60;42.90;97685.34;10287107;28;20077;-50
2023/07/18 18:40:41;;;;;;;11.43;6.72;;;;;;;28.36;43.68;97688.06;10284437;28;20133;-52
2023/07/18 18:45:40;;;;;;;9.63;6.63;;;;;;;28.08;44.84;97689.25;10285291;28;20061;-49
2023/07/18 18:50:39;;;;;;;10.63;6.55;;;;;;;27.89;44.74;97700.34;10285476;28;20076;-51
2023/07/18 18:55:38;;;;;;;10.65;6.72;;;;;;;27.71;45.60;97685.72;10283672;28;20036;-50
2023/07/18 19:00:37;;;;;;;8.80;6.28;;;;;;;27.51;45.59;97695.97;10285849;28;20022;-50
2023/07/18 19:05:36;;;;;;;8.77;6.28;;;;;;;27.41;45.97;97702.88;10284541;28;20146;-51
2023/07/18 19:10:35;;;;;;;9.60;6.13;;;;;;;27.20;46.27;97702.56;10283041;28;20507;-50
2023/07/18 19:15:34;;;;;;;10.10;6.40;;;;;;;27.13;46.19;97710.13;10282568;28;20033;-51
2023/07/18 19:20:33;;;;;;;9.38;5.82;;;;;;;27.03;46.50;97705.56;10285238;28;20149;-50
2023/07/18 19:25:32;;;;;;;8.07;5.78;;;;;;;26.93;46.61;97711.50;10284255;28;20125;-52
2023/07/18 19:30:31;;;;;;;10.80;6.05;;;;;;;26.84;47.11;97712.13;10283339;28;20125;-49
2023/07/18 19:35:30;;;;;;;9.65;6.95;;;;;;;26.73;47.85;97719.97;10283984;28;20033;-51
2023/07/18 19:40:30;;;;;;;10.27;6.53;;;;;;;26.53;48.34;97716.84;10283703;28;20061;-51
2023/07/18 19:45:29;;;;;;;8.85;6.57;;;;;;;26.46;48.73;97712.84;10270551;28;20524;-51
2023/07/18 19:50:28;;;;;;;11.60;6.40;;;;;;;26.29;48.73;97731.75;10251858;28;20488;-51
2023/07/18 19:55:27;;;;;;;11.20;6.38;;;;;;;26.24;49.39;97734.69;10254625;28;20423;-52
2023/07/18 20:00:26;;;;;;;8.38;5.68;;;;;;;26.11;48.98;97728.44;10248690;28;20108;-50
2023/07/18 20:05:25;;;;;;;8.73;5.75;;;;;;;26.06;49.20;97725.22;10256144;28;20133;-51
2023/07/18 20:10:24;;;;;;;8.93;6.13;;;;;;;25.97;49.79;97731.13;10254320;28;20038;-51
2023/07/18 20:15:23;;;;;;;11.95;6.38;;;;;;;25.84;49.58;97731.91;10253686;28;20046;-51
2023/07/18 20:20:22;;;;;;;10.80;5.88;;;;;;;25.78;50.31;97737.59;10253963;28;20070;-52
2023/07/18 20:25:22;;;;;;;11.02;6.60;;;;;;;25.70;51.60;97748.72;10252968;28;20066;-52
2023/07/18 20:30:21;;;;;;;13.27;7.40;;;;;;;25.44;53.53;97755.63;10247977;28;20134;-50
2023/07/18 20:35:20;;;;;;;13.18;7.40;;;;;;;25.10;55.58;97757.66;10255570;28;20042;-52
2023/07/18 20:40:19;;;;;;;10.52;7.40;;;;;;;24.79;57.21;97771.88;10256135;28;20073;-51
2023/07/18 20:45:25;;;;;;;12.57;7.88;;;;;;;24.61;57.81;97786.22;10256270;28;20066;-51
2023/07/18 20:50:23;;;;;;;11.63;7.50;;;;;;;24.58;57.70;97781.09;10252041;28;20120;-51
2023/07/18 20:55:22;;;;;;;10.60;7.68;;;;;;;24.46;58.94;97793.25;10254997;28;20026;-50
2023/07/18 21:00:22;;;;;;;10.65;7.97;;;;;;;24.44;58.48;97801.28;10252660;28;20033;-49
2023/07/18 21:05:21;;;;;;;14.98;8.00;;;;;;;24.44;58.70;97805.75;10253199;28;20112;-51
2023/07/18 21:10:20;;;;;;;10.02;7.90;;;;;;;24.47;58.29;97793.19;10253227;28;20052;-52
2023/07/18 21:15:19;;;;;;;9.63;6.85;;;;;;;24.43;58.87;97809.34;10252823;28;20033;-51
2023/07/18 21:20:18;;;;;;;12.38;7.85;;;;;;;24.42;59.56;97812.94;10254192;28;20485;-53
2023/07/18 21:25:17;;;;;;;10.52;7.10;;;;;;;24.33;59.67;97830.19;10252589;28;20051;-50
2023/07/18 21:30:16;;;;;;;10.50;7.10;;;;;;;24.27;59.07;97817.31;10255177;28;20143;-50
2023/07/18 21:35:15;;;;;;;12.50;8.20;;;;;;;24.10;60.46;97820.88;10251048;28;20037;-51
2023/07/18 21:40:14;;;;;;;13.95;8.43;;;;;;;24.03;60.29;97814.19;10257037;28;20069;-51
2023/07/18 21:45:13;;;;;;;12.50;7.95;;;;;;;23.96;60.54;97816.31;10252314;28;20066;-51
2023/07/18 21:50:12;;;;;;;12.43;8.05;;;;;;;23.82;61.65;97814.41;10252442;28;20763;-51
2023/07/18 21:55:11;;;;;;;10.38;8.00;;;;;;;23.78;62.41;97812.00;10250956;28;20574;-52
2023/07/18 22:00:10;;;;;;;10.23;8.00;;;;;;;23.64;63.50;97821.53;10251344;28;20116;-51
2023/07/18 22:05:09;;;;;;;13.63;8.60;;;;;;;23.54;64.22;97836.22;10249288;28;20061;-52
2023/07/18 22:10:09;;;;;;;11.43;7.63;;;;;;;23.47;63.85;97831.28;10251017;28;20113;-51
2023/07/18 22:15:08;;;;;;;10.05;7.88;;;;;;;23.39;64.81;97826.38;10251397;28;20132;-51
2023/07/18 22:20:08;;;;;;;10.98;7.90;;;;;;;23.25;65.36;97824.44;10246538;28;20088;-51
2023/07/18 22:25:07;;;;;;;10.57;8.05;;;;;;;23.14;65.64;97817.03;10253326;28;20118;-51
2023/07/18 22:30:06;;;;;;;10.27;7.65;;;;;;;23.06;65.89;97818.38;10250354;28;20070;-52
2023/07/18 22:35:05;;;;;;;11.55;7.90;;;;;;;22.97;67.06;97819.66;10249519;28;20125;-52
2023/07/18 22:40:05;;;;;;;11.57;7.90;;;;;;;22.92;66.63;97811.97;10251237;28;20077;-52
2023/07/18 22:45:04;;;;;;;10.45;7.38;;;;;;;22.85;67.57;97799.97;10250098;28;20547;-53
2023/07/18 22:50:04;;;;;;;11.93;7.75;;;;;;;22.62;68.14;97766.69;10260105;28;20479;-52